KFFL/FFL METAR and TAF weather

Enter ICAO airport designator
Station Type Date Time Source
KFFL METAR 2018/12/11 23:35 UTC NOAA

KFFL 112335Z AUTO 18009KT 10SM SCT170 BKN190 06/M01 A2991 RMK AO2 PWINO


Station Type Date Time Source
KFFL Decoded METAR 2018/12/11 23:35 UTC NOAA

Fair Field, IA, United States (KFFL) 41-03N 091-59W
Dec 11, 2018 - 06:35 PM EST / 2018.12.11 2335 UTC
Wind: from the S (180 degrees) at 10 MPH (9 KT):0
Visibility: 10 mile(s):0
Sky conditions: mostly cloudy
Temperature: 42 F (6 C)
Dew Point: 30 F (-1 C)
Relative Humidity: 60%
Pressure (altimeter): 29.91 in. Hg (1012 hPa)
ob: KFFL 112335Z AUTO 18009KT 10SM SCT170 BKN190 06/M01 A2991 RMK AO2 PWINO
cycle: 23

Station Type Date Time Source
KFFL TAF UTC NOAA

Error!


Example: see airport list